Time;durP1;ratioP1;P1;durP2;ratioP2;P2;SDS_P1;SDS_P2;PMS_P1;PMS_P2;Temp;Humidity;BMP_temperature;BMP_pressure;BME280_temperature;BME280_humidity;BME280_pressure;Samples;Min_cycle;Max_cycle;Signal;HPM_P1;HPM_P2
2022/11/29 00:01:37;;;;;;;24.83;13.15;;;;;;;;;;5026231;28;20380;-72
2022/11/29 00:04:02;;;;;;;28.00;14.25;;;;;;;;;;5022600;28;20025;-72
2022/11/29 00:06:29;;;;;;;25.95;13.50;;;;;;;;;;5028080;28;20017;-71
2022/11/29 00:08:56;;;;;;;34.83;15.00;;;;;;;;;;5017669;28;20040;-72
2022/11/29 00:14:08;;;;;;;26.65;12.90;;;;;;;;;;5021156;28;20464;-72
2022/11/29 00:16:33;;;;;;;21.42;11.50;;;;;;;;;;5026649;28;20029;-72
2022/11/29 00:18:58;;;;;;;32.45;15.25;;;;;;;;;;5028267;28;20017;-72
2022/11/29 00:21:23;;;;;;;29.75;15.25;;;;;;;;;;5026956;28;20017;-72
2022/11/29 00:23:49;;;;;;;32.22;14.52;;;;;;;;;;5023559;28;20028;-72
2022/11/29 00:26:14;;;;;;;33.15;15.32;;;;;;;;;;5022845;28;20028;-72
2022/11/29 00:28:39;;;;;;;29.70;15.45;;;;;;;;;;5024875;28;20033;-71
2022/11/29 00:31:13;;;;;;;27.50;14.50;;;;;;;;;;5028379;28;20029;-72
2022/11/29 00:33:39;;;;;;;31.00;15.30;;;;;;;;;;5025811;28;20284;-72
2022/11/29 00:36:04;;;;;;;32.77;15.13;;;;;;;;;;5031042;28;20394;-72
2022/11/29 00:38:29;;;;;;;30.08;15.80;;;;;;;;;;5020299;28;20320;-72
2022/11/29 00:40:54;;;;;;;30.23;15.47;;;;;;;;;;5027435;28;20087;-72
2022/11/29 00:43:19;;;;;;;28.83;14.17;;;;;;;;;;5029310;28;20610;-72
2022/11/29 00:45:45;;;;;;;32.10;15.23;;;;;;;;;;5035092;28;20283;-72
2022/11/29 00:48:10;;;;;;;54.60;16.03;;;;;;;;;;5026923;28;20310;-72
2022/11/29 00:50:35;;;;;;;33.20;16.63;;;;;;;;;;5031605;28;20288;-71
2022/11/29 00:53:00;;;;;;;33.97;16.23;;;;;;;;;;5028810;28;20284;-72
2022/11/29 00:55:25;;;;;;;35.07;16.70;;;;;;;;;;5030200;28;20438;-71
2022/11/29 00:57:50;;;;;;;30.73;16.73;;;;;;;;;;5023838;28;20291;-70
2022/11/29 01:00:16;;;;;;;31.90;16.93;;;;;;;;;;5029527;28;20281;-71
2022/11/29 01:02:41;;;;;;;42.25;17.50;;;;;;;;;;5032475;28;20303;-72
2022/11/29 01:05:06;;;;;;;42.25;18.38;;;;;;;;;;5030230;28;20064;-72
2022/11/29 01:07:32;;;;;;;35.30;16.42;;;;;;;;;;5026306;28;20057;-71
2022/11/29 01:09:57;;;;;;;36.20;17.00;;;;;;;;;;5024269;28;20293;-72
2022/11/29 01:12:22;;;;;;;36.93;16.63;;;;;;;;;;5028734;28;20276;-70
2022/11/29 01:14:47;;;;;;;42.73;17.43;;;;;;;;;;5026019;28;20300;-72
2022/11/29 01:17:12;;;;;;;37.90;17.73;;;;;;;;;;5024690;28;21995;-72
2022/11/29 01:19:37;;;;;;;39.22;18.10;;;;;;;;;;5024912;28;20280;-72
2022/11/29 01:22:03;;;;;;;43.03;18.60;;;;;;;;;;5023238;28;20527;-71
2022/11/29 01:24:29;;;;;;;35.67;18.27;;;;;;;;;;5024961;28;20263;-72
2022/11/29 01:26:54;;;;;;;30.65;16.10;;;;;;;;;;5033423;28;20756;-71
2022/11/29 01:29:19;;;;;;;40.53;17.77;;;;;;;;;;5029833;28;20120;-71
2022/11/29 01:31:44;;;;;;;33.63;17.30;;;;;;;;;;5028447;28;20302;-72
2022/11/29 01:34:09;;;;;;;43.50;18.85;;;;;;;;;;5026612;28;20022;-71
2022/11/29 01:36:35;;;;;;;38.95;17.23;;;;;;;;;;5025439;28;20128;-73
2022/11/29 01:39:01;;;;;;;46.28;18.13;;;;;;;;;;5027102;28;20188;-72
2022/11/29 01:41:27;;;;;;;44.60;18.02;;;;;;;;;;5031266;28;20366;-71
2022/11/29 01:44:04;;;;;;;55.88;18.23;;;;;;;;;;5028331;28;20534;-72
2022/11/29 01:46:31;;;;;;;43.92;17.10;;;;;;;;;;5029709;28;20482;-72
2022/11/29 01:48:58;;;;;;;43.25;18.65;;;;;;;;;;5025551;28;20031;-73
2022/11/29 01:51:24;;;;;;;49.05;17.45;;;;;;;;;;5027607;28;20067;-72
2022/11/29 01:53:49;;;;;;;48.80;18.77;;;;;;;;;;5030725;28;20466;-72
2022/11/29 01:56:15;;;;;;;45.27;18.40;;;;;;;;;;5022599;28;20311;-73
2022/11/29 01:58:41;;;;;;;44.90;18.70;;;;;;;;;;5030401;28;20260;-72
2022/11/29 02:01:06;;;;;;;37.33;16.58;;;;;;;;;;5021213;28;20109;-72
2022/11/29 02:03:31;;;;;;;48.60;16.57;;;;;;;;;;5025955;28;20116;-71
2022/11/29 02:05:57;;;;;;;46.93;17.40;;;;;;;;;;5022705;28;20284;-72
2022/11/29 02:08:26;;;;;;;45.17;17.63;;;;;;;;;;5026689;28;20344;-72
2022/11/29 02:10:54;;;;;;;45.45;18.50;;;;;;;;;;5024954;28;20393;-73
2022/11/29 02:13:19;;;;;;;49.58;17.85;;;;;;;;;;5022015;28;20049;-73
2022/11/29 02:16:01;;;;;;;53.38;18.15;;;;;;;;;;5029214;28;20060;-72
2022/11/29 02:18:34;;;;;;;53.92;17.77;;;;;;;;;;5026241;28;20268;-72
2022/11/29 02:21:09;;;;;;;45.80;17.58;;;;;;;;;;5025888;28;20022;-73
2022/11/29 02:23:35;;;;;;;59.70;18.55;;;;;;;;;;5022690;28;20020;-72
2022/11/29 02:26:18;;;;;;;55.38;20.85;;;;;;;;;;5023510;28;20021;-73
2022/11/29 02:28:49;;;;;;;54.50;19.52;;;;;;;;;;5026150;28;20260;-72
2022/11/29 02:31:27;;;;;;;55.35;18.08;;;;;;;;;;5025224;28;20502;-73
2022/11/29 02:34:01;;;;;;;63.92;18.98;;;;;;;;;;5017622;28;20036;-72
2022/11/29 02:36:49;;;;;;;56.33;18.27;;;;;;;;;;5024387;28;20478;-72
2022/11/29 02:39:23;;;;;;;55.10;18.35;;;;;;;;;;5018129;28;20017;-72
2022/11/29 02:42:14;;;;;;;43.78;17.35;;;;;;;;;;5021720;28;20379;-72
2022/11/29 02:44:49;;;;;;;45.33;17.38;;;;;;;;;;5024709;28;20034;-72
2022/11/29 02:47:14;;;;;;;42.85;17.90;;;;;;;;;;5022835;28;20463;-72
2022/11/29 02:49:57;;;;;;;50.85;17.38;;;;;;;;;;5021172;28;20027;-73
2022/11/29 02:52:43;;;;;;;43.08;17.13;;;;;;;;;;5020982;28;20240;-71
2022/11/29 02:55:12;;;;;;;40.97;17.17;;;;;;;;;;5019566;28;20510;-73
2022/11/29 02:57:43;;;;;;;57.20;20.73;;;;;;;;;;5022404;28;20022;-73
2022/11/29 03:00:12;;;;;;;36.95;16.58;;;;;;;;;;5018678;28;20026;-72
2022/11/29 03:02:37;;;;;;;45.20;17.60;;;;;;;;;;5020095;28;20095;-73
2022/11/29 03:05:02;;;;;;;48.22;17.95;;;;;;;;;;5019920;28;20056;-72
2022/11/29 03:07:44;;;;;;;41.00;18.47;;;;;;;;;;5021623;28;20629;-72
2022/11/29 03:10:27;;;;;;;38.83;18.20;;;;;;;;;;5020368;28;20821;-73
2022/11/29 03:12:53;;;;;;;44.83;17.95;;;;;;;;;;5029161;28;20037;-72
2022/11/29 03:15:26;;;;;;;57.42;20.23;;;;;;;;;;5020120;28;20363;-70
2022/11/29 03:17:54;;;;;;;49.35;18.20;;;;;;;;;;5022925;28;20357;-72
2022/11/29 03:20:22;;;;;;;63.38;22.17;;;;;;;;;;5019415;28;20014;-72
2022/11/29 03:23:08;;;;;;;56.08;19.70;;;;;;;;;;5018338;28;20021;-72
2022/11/29 03:25:47;;;;;;;68.57;22.80;;;;;;;;;;5014396;28;20022;-72
2022/11/29 03:28:26;;;;;;;76.22;26.13;;;;;;;;;;5016190;28;20010;-73
2022/11/29 03:31:17;;;;;;;72.57;23.25;;;;;;;;;;5018575;28;20021;-72
2022/11/29 03:33:53;;;;;;;74.30;23.83;;;;;;;;;;5012579;28;20313;-72
2022/11/29 03:36:44;;;;;;;75.25;25.15;;;;;;;;;;5012548;28;20061;-72
2022/11/29 03:39:16;;;;;;;82.63;23.65;;;;;;;;;;5016551;28;20037;-72
2022/11/29 03:42:07;;;;;;;64.03;22.60;;;;;;;;;;5017046;28;20260;-72
2022/11/29 03:44:36;;;;;;;81.82;25.35;;;;;;;;;;5020132;28;20088;-72
2022/11/29 03:47:07;;;;;;;105.80;27.30;;;;;;;;;;5019041;28;20076;-72
2022/11/29 03:49:36;;;;;;;84.80;25.90;;;;;;;;;;5017513;28;20035;-72
2022/11/29 03:52:07;;;;;;;99.80;26.55;;;;;;;;;;5016505;28;20033;-71
2022/11/29 03:54:44;;;;;;;112.07;28.48;;;;;;;;;;5016440;28;20049;-72
2022/11/29 03:57:12;;;;;;;94.03;28.05;;;;;;;;;;5021855;28;20108;-72
2022/11/29 03:59:40;;;;;;;96.40;25.88;;;;;;;;;;5023669;28;20104;-72
2022/11/29 04:02:24;;;;;;;111.53;30.48;;;;;;;;;;5020335;28;20017;-73
2022/11/29 04:05:10;;;;;;;107.03;28.52;;;;;;;;;;5026776;28;20026;-73
2022/11/29 04:07:59;;;;;;;91.30;29.00;;;;;;;;;;5017961;28;20041;-72
2022/11/29 04:10:26;;;;;;;120.22;30.67;;;;;;;;;;5017888;28;20378;-72
2022/11/29 04:13:10;;;;;;;88.88;28.73;;;;;;;;;;5023715;28;20021;-72
2022/11/29 04:15:35;;;;;;;98.10;28.95;;;;;;;;;;5019067;28;20026;-72
2022/11/29 04:18:19;;;;;;;113.60;29.67;;;;;;;;;;5018369;28;20059;-72
2022/11/29 04:20:54;;;;;;;100.95;28.48;;;;;;;;;;5014626;28;20087;-72
2022/11/29 04:23:31;;;;;;;117.78;30.55;;;;;;;;;;5017933;28;20605;-73
2022/11/29 04:26:08;;;;;;;108.30;30.75;;;;;;;;;;5050981;23;20044;-70
2022/11/29 04:28:42;;;;;;;112.72;33.65;;;;;;;;;;5032846;28;20100;-70
2022/11/29 04:31:10;;;;;;;123.03;32.63;;;;;;;;;;5029276;28;20409;-70
2022/11/29 04:33:38;;;;;;;125.75;33.10;;;;;;;;;;5029432;28;20105;-70
2022/11/29 04:36:12;;;;;;;135.10;34.13;;;;;;;;;;5030184;28;20549;-70
2022/11/29 04:38:58;;;;;;;118.57;32.17;;;;;;;;;;5028322;28;20466;-69
2022/11/29 04:41:41;;;;;;;114.38;32.45;;;;;;;;;;5022612;28;20024;-70
2022/11/29 04:44:12;;;;;;;134.15;32.55;;;;;;;;;;5019522;28;20028;-70
2022/11/29 04:46:56;;;;;;;121.10;33.78;;;;;;;;;;5017975;28;20100;-69
2022/11/29 04:49:21;;;;;;;119.88;31.98;;;;;;;;;;5022985;28;20026;-70
2022/11/29 04:52:05;;;;;;;141.23;35.55;;;;;;;;;;5024228;28;20083;-70
2022/11/29 04:54:39;;;;;;;146.02;36.42;;;;;;;;;;5020496;28;20288;-70
2022/11/29 04:57:04;;;;;;;131.25;36.78;;;;;;;;;;5013865;28;20436;-69
2022/11/29 04:59:51;;;;;;;140.17;35.73;;;;;;;;;;5018754;28;20094;-70
2022/11/29 05:02:19;;;;;;;181.98;38.67;;;;;;;;;;5020865;28;20264;-71
2022/11/29 05:04:52;;;;;;;155.20;37.50;;;;;;;;;;5024729;28;20025;-70
2022/11/29 05:07:17;;;;;;;143.57;38.53;;;;;;;;;;5018285;28;20034;-70
2022/11/29 05:09:42;;;;;;;176.60;42.20;;;;;;;;;;5021714;28;20040;-70
2022/11/29 05:12:17;;;;;;;202.40;46.17;;;;;;;;;;5022655;28;20795;-70
2022/11/29 05:14:55;;;;;;;184.35;41.70;;;;;;;;;;5021551;28;20030;-70
2022/11/29 05:17:20;;;;;;;194.90;44.05;;;;;;;;;;5019882;28;20717;-70
2022/11/29 05:20:02;;;;;;;188.82;42.33;;;;;;;;;;5022023;28;20022;-70
2022/11/29 05:22:34;;;;;;;172.23;41.50;;;;;;;;;;5026232;28;20485;-70
2022/11/29 05:25:23;;;;;;;177.55;40.60;;;;;;;;;;5018664;28;20026;-70
2022/11/29 05:27:55;;;;;;;217.38;49.33;;;;;;;;;;5015557;28;20045;-70
2022/11/29 05:30:22;;;;;;;204.55;43.72;;;;;;;;;;5018539;28;20028;-70
2022/11/29 05:32:59;;;;;;;240.70;49.15;;;;;;;;;;5028108;28;20029;-70
2022/11/29 05:35:45;;;;;;;211.80;46.10;;;;;;;;;;5024353;28;20102;-70
2022/11/29 05:38:27;;;;;;;234.82;47.72;;;;;;;;;;5021092;28;20036;-70
2022/11/29 05:41:11;;;;;;;264.35;49.33;;;;;;;;;;5022676;28;20493;-70
2022/11/29 05:43:44;;;;;;;273.92;49.17;;;;;;;;;;5030319;28;20021;-70
2022/11/29 05:46:09;;;;;;;301.10;53.83;;;;;;;;;;5020730;28;20028;-71
2022/11/29 05:48:44;;;;;;;291.53;53.43;;;;;;;;;;5028147;28;20390;-70
2022/11/29 05:51:18;;;;;;;308.83;52.15;;;;;;;;;;5024498;28;20765;-70
2022/11/29 05:53:58;;;;;;;277.92;49.17;;;;;;;;;;5023090;28;20073;-70
2022/11/29 05:56:23;;;;;;;310.30;52.42;;;;;;;;;;5019262;28;20315;-70
2022/11/29 05:58:55;;;;;;;318.47;56.17;;;;;;;;;;5027516;28;20496;-71
2022/11/29 06:01:22;;;;;;;365.58;55.63;;;;;;;;;;5026917;28;20272;-72
2022/11/29 06:04:05;;;;;;;320.25;52.25;;;;;;;;;;5022758;28;20026;-69
2022/11/29 06:06:30;;;;;;;339.60;52.55;;;;;;;;;;5023054;28;20021;-70
2022/11/29 06:09:05;;;;;;;368.63;58.90;;;;;;;;;;5029389;28;20108;-71
2022/11/29 06:11:34;;;;;;;325.48;55.60;;;;;;;;;;5016234;28;20485;-69
2022/11/29 06:14:24;;;;;;;369.15;59.78;;;;;;;;;;5018771;28;20041;-72
2022/11/29 06:16:55;;;;;;;366.00;55.95;;;;;;;;;;5008135;28;20696;-70
2022/11/29 06:19:39;;;;;;;337.27;57.50;;;;;;;;;;5019178;28;20026;-72
2022/11/29 06:22:23;;;;;;;362.23;58.35;;;;;;;;;;5017105;28;20080;-73
2022/11/29 06:25:00;;;;;;;348.25;54.50;;;;;;;;;;5015634;28;20025;-74
2022/11/29 06:27:35;;;;;;;356.73;58.78;;;;;;;;;;5016752;28;20021;-71
2022/11/29 06:30:07;;;;;;;360.83;60.25;;;;;;;;;;5023416;28;20548;-71
2022/11/29 06:32:50;;;;;;;348.42;60.00;;;;;;;;;;5025968;28;20057;-70
2022/11/29 06:35:34;;;;;;;343.65;58.95;;;;;;;;;;5012753;28;21042;-71
2022/11/29 06:38:02;;;;;;;343.20;57.40;;;;;;;;;;5016276;28;20047;-70
2022/11/29 06:40:28;;;;;;;402.83;67.82;;;;;;;;;;5021608;28;20017;-70
2022/11/29 06:42:53;;;;;;;384.23;60.42;;;;;;;;;;5021541;28;20362;-71
2022/11/29 06:45:20;;;;;;;362.77;60.73;;;;;;;;;;5011598;28;20034;-70
2022/11/29 06:47:51;;;;;;;366.58;57.03;;;;;;;;;;5011222;28;20360;-71
2022/11/29 06:50:16;;;;;;;380.30;60.28;;;;;;;;;;5010189;28;20449;-69
2022/11/29 06:52:44;;;;;;;378.42;61.20;;;;;;;;;;5013241;28;20029;-70
2022/11/29 06:55:18;;;;;;;360.55;59.92;;;;;;;;;;5020681;28;20075;-70
2022/11/29 06:58:03;;;;;;;393.35;63.70;;;;;;;;;;5014957;28;20104;-70
2022/11/29 07:00:35;;;;;;;364.55;60.10;;;;;;;;;;5013391;28;20504;-68
2022/11/29 07:03:18;;;;;;;380.35;62.67;;;;;;;;;;5026530;28;20018;-68
2022/11/29 07:05:45;;;;;;;360.08;60.42;;;;;;;;;;5015676;28;20016;-69
2022/11/29 07:08:18;;;;;;;353.20;60.45;;;;;;;;;;5025275;28;20018;-68
2022/11/29 07:10:43;;;;;;;352.42;57.28;;;;;;;;;;5020866;28;20540;-69
2022/11/29 07:13:12;;;;;;;369.10;56.78;;;;;;;;;;5018638;28;20109;-69
2022/11/29 07:15:38;;;;;;;329.85;58.72;;;;;;;;;;5016333;28;20014;-69
2022/11/29 07:18:03;;;;;;;324.13;57.90;;;;;;;;;;5024277;28;20022;-68
2022/11/29 07:20:54;;;;;;;327.53;57.07;;;;;;;;;;5016166;28;20071;-71
2022/11/29 07:23:19;;;;;;;332.25;56.83;;;;;;;;;;5011904;28;20288;-70
2022/11/29 07:25:57;;;;;;;318.63;55.20;;;;;;;;;;5016815;28;20040;-69
2022/11/29 07:28:28;;;;;;;348.27;60.67;;;;;;;;;;5014750;28;20341;-69
2022/11/29 07:31:12;;;;;;;332.08;55.70;;;;;;;;;;5013644;28;20026;-69
2022/11/29 07:33:39;;;;;;;333.17;56.83;;;;;;;;;;5011919;28;21044;-69
2022/11/29 07:36:04;;;;;;;328.08;53.30;;;;;;;;;;5013180;28;20072;-69
2022/11/29 07:38:32;;;;;;;314.38;52.28;;;;;;;;;;5023647;28;20022;-70
2022/11/29 07:41:10;;;;;;;327.23;52.40;;;;;;;;;;5015914;28;20489;-71
2022/11/29 07:44:00;;;;;;;325.05;59.22;;;;;;;;;;5018717;28;20435;-71
2022/11/29 07:46:27;;;;;;;350.53;60.77;;;;;;;;;;5020231;28;20021;-72
2022/11/29 07:48:52;;;;;;;333.90;57.28;;;;;;;;;;5025667;28;20037;-71
2022/11/29 07:51:17;;;;;;;332.88;57.35;;;;;;;;;;5020605;28;20025;-71
2022/11/29 07:53:43;;;;;;;353.80;59.25;;;;;;;;;;5019812;28;20029;-71
2022/11/29 07:56:08;;;;;;;312.20;52.60;;;;;;;;;;5017417;28;20025;-71
2022/11/29 07:58:34;;;;;;;325.50;62.20;;;;;;;;;;5025253;28;20010;-71
2022/11/29 08:01:00;;;;;;;330.05;61.17;;;;;;;;;;5021016;28;20025;-71
2022/11/29 08:03:25;;;;;;;342.55;59.00;;;;;;;;;;5013454;28;20029;-71
2022/11/29 08:05:50;;;;;;;291.73;54.90;;;;;;;;;;5020810;28;20044;-73
2022/11/29 08:08:15;;;;;;;313.10;53.90;;;;;;;;;;5018719;28;20284;-71
2022/11/29 08:10:41;;;;;;;309.45;51.00;;;;;;;;;;5025338;28;20319;-72
2022/11/29 08:13:06;;;;;;;303.63;55.67;;;;;;;;;;5022163;28;20445;-71
2022/11/29 08:15:31;;;;;;;287.93;55.73;;;;;;;;;;5019573;28;20021;-71
2022/11/29 08:17:56;;;;;;;260.53;49.70;;;;;;;;;;5014691;28;20268;-71
2022/11/29 08:20:21;;;;;;;257.10;45.78;;;;;;;;;;5018053;28;20277;-71
2022/11/29 08:22:57;;;;;;;268.08;46.63;;;;;;;;;;5016880;28;20056;-71
2022/11/29 08:25:22;;;;;;;251.68;48.10;;;;;;;;;;5012370;28;20088;-70
2022/11/29 08:27:48;;;;;;;242.77;44.65;;;;;;;;;;5025112;28;20022;-72
2022/11/29 08:30:13;;;;;;;246.82;46.70;;;;;;;;;;5014447;28;20017;-70
2022/11/29 08:32:38;;;;;;;237.80;47.60;;;;;;;;;;5022096;28;20247;-70
2022/11/29 08:35:03;;;;;;;241.87;43.90;;;;;;;;;;5013911;28;20474;-72
2022/11/29 08:37:29;;;;;;;229.65;43.95;;;;;;;;;;5026012;28;20252;-71
2022/11/29 08:39:54;;;;;;;244.13;50.90;;;;;;;;;;5025195;28;20018;-70
2022/11/29 08:42:20;;;;;;;225.52;44.10;;;;;;;;;;5014293;28;20265;-72
2022/11/29 08:44:46;;;;;;;222.40;40.78;;;;;;;;;;5018437;28;20034;-71
2022/11/29 08:50:01;;;;;;;244.82;47.22;;;;;;;;;;5020538;28;20083;-71
2022/11/29 08:55:11;;;;;;;213.88;48.33;;;;;;;;;;5025676;28;20091;-72
2022/11/29 08:57:36;;;;;;;213.02;39.80;;;;;;;;;;5031791;28;20017;-72
2022/11/29 09:00:02;;;;;;;187.55;37.78;;;;;;;;;;5027818;28;20430;-71
2022/11/29 09:02:28;;;;;;;190.48;42.50;;;;;;;;;;5029291;28;20039;-70
2022/11/29 09:04:53;;;;;;;189.98;38.58;;;;;;;;;;5024281;28;20036;-70
2022/11/29 09:07:18;;;;;;;176.93;39.08;;;;;;;;;;5025242;28;20021;-71
2022/11/29 09:09:43;;;;;;;213.90;41.83;;;;;;;;;;5020409;28;20029;-71
2022/11/29 09:12:08;;;;;;;187.87;39.00;;;;;;;;;;5026555;28;20276;-72
2022/11/29 09:14:34;;;;;;;186.17;37.23;;;;;;;;;;5029485;28;20753;-71
2022/11/29 09:16:59;;;;;;;192.97;36.47;;;;;;;;;;5021379;28;20343;-71
2022/11/29 09:19:25;;;;;;;166.95;36.17;;;;;;;;;;5025697;28;20272;-71
2022/11/29 09:21:50;;;;;;;169.95;35.15;;;;;;;;;;5015165;28;20049;-72
2022/11/29 09:24:15;;;;;;;182.60;40.13;;;;;;;;;;5021254;28;20111;-72
2022/11/29 09:26:41;;;;;;;163.40;36.38;;;;;;;;;;5016005;28;20281;-70
2022/11/29 09:29:07;;;;;;;168.88;32.88;;;;;;;;;;5020375;28;20025;-70
2022/11/29 09:31:33;;;;;;;170.98;35.83;;;;;;;;;;5025103;28;20466;-71
2022/11/29 09:33:58;;;;;;;182.23;38.38;;;;;;;;;;5027728;28;20017;-70
2022/11/29 09:36:23;;;;;;;167.68;40.35;;;;;;;;;;5022561;28;20024;-70
2022/11/29 09:38:48;;;;;;;179.55;39.63;;;;;;;;;;5020886;28;20024;-70
2022/11/29 09:41:14;;;;;;;176.25;40.03;;;;;;;;;;5020737;28;20036;-71
2022/11/29 09:43:48;;;;;;;164.43;39.00;;;;;;;;;;5028689;28;20470;-71
2022/11/29 09:46:16;;;;;;;148.68;36.05;;;;;;;;;;5019926;28;20376;-70
2022/11/29 09:48:42;;;;;;;156.55;35.15;;;;;;;;;;5029374;28;20023;-71
2022/11/29 09:51:13;;;;;;;172.70;39.65;;;;;;;;;;5026474;28;20125;-71
2022/11/29 09:53:45;;;;;;;169.25;40.70;;;;;;;;;;5023490;28;20064;-71
2022/11/29 09:56:16;;;;;;;148.75;35.58;;;;;;;;;;5023874;28;20080;-71
2022/11/29 09:58:47;;;;;;;143.23;34.03;;;;;;;;;;5023579;28;20068;-70
2022/11/29 10:01:17;;;;;;;146.52;35.65;;;;;;;;;;5016890;28;20025;-71
2022/11/29 10:03:44;;;;;;;139.93;36.92;;;;;;;;;;5021530;28;20121;-72
2022/11/29 10:06:15;;;;;;;136.80;32.10;;;;;;;;;;5026054;28;20032;-71
2022/11/29 10:09:01;;;;;;;131.95;35.00;;;;;;;;;;5023875;28;20056;-70
2022/11/29 10:11:42;;;;;;;160.38;37.95;;;;;;;;;;5029269;28;20018;-69
2022/11/29 10:14:27;;;;;;;127.05;33.38;;;;;;;;;;5024264;28;20025;-70
2022/11/29 10:16:56;;;;;;;151.80;38.05;;;;;;;;;;5025570;28;20132;-69
2022/11/29 10:19:36;;;;;;;141.07;36.30;;;;;;;;;;5014600;28;20149;-69
2022/11/29 10:22:03;;;;;;;142.38;34.85;;;;;;;;;;5011931;28;20596;-70
2022/11/29 10:24:30;;;;;;;157.88;35.38;;;;;;;;;;5024285;28;20025;-69
2022/11/29 10:26:55;;;;;;;139.70;35.60;;;;;;;;;;5046145;22;20046;-71
2022/11/29 10:29:21;;;;;;;132.83;35.80;;;;;;;;;;5026280;28;20319;-71
2022/11/29 10:31:48;;;;;;;146.20;35.83;;;;;;;;;;5028063;28;20390;-72
2022/11/29 10:34:20;;;;;;;152.98;36.08;;;;;;;;;;5024932;28;20061;-72
2022/11/29 10:36:51;;;;;;;145.80;35.22;;;;;;;;;;5015714;28;20034;-72
2022/11/29 10:39:16;;;;;;;;;;;;;;;;;;5011779;28;20013;-72
2022/11/29 10:41:42;;;;;;;144.40;35.50;;;;;;;;;;4996237;28;19912;-71
2022/11/29 10:44:09;;;;;;;171.15;40.70;;;;;;;;;;5009028;28;20022;-72
2022/11/29 10:46:35;;;;;;;166.35;40.13;;;;;;;;;;5007002;28;20112;-72
2022/11/29 10:49:02;;;;;;;152.60;35.28;;;;;;;;;;4992111;28;20478;-72
2022/11/29 10:51:27;;;;;;;152.30;40.30;;;;;;;;;;5003978;28;20017;-72
2022/11/29 10:53:56;;;;;;;164.43;38.40;;;;;;;;;;5003996;28;20391;-72
2022/11/29 10:56:28;;;;;;;160.35;39.60;;;;;;;;;;5004518;28;20013;-72
2022/11/29 10:58:53;;;;;;;150.30;39.15;;;;;;;;;;4992490;28;20061;-72
2022/11/29 11:01:18;;;;;;;150.98;40.75;;;;;;;;;;4991962;28;20046;-72
2022/11/29 11:03:54;;;;;;;155.63;42.90;;;;;;;;;;5005680;28;20038;-71
2022/11/29 11:06:24;;;;;;;147.00;38.92;;;;;;;;;;5002634;28;20026;-71
2022/11/29 11:09:09;;;;;;;143.98;38.35;;;;;;;;;;5009230;28;20029;-71
2022/11/29 11:11:35;;;;;;;137.15;34.88;;;;;;;;;;5008223;28;20525;-72
2022/11/29 11:14:04;;;;;;;150.15;38.50;;;;;;;;;;5004298;28;20112;-72
2022/11/29 11:16:30;;;;;;;145.20;39.15;;;;;;;;;;5006959;28;20010;-71
2022/11/29 11:18:55;;;;;;;155.38;40.10;;;;;;;;;;4991273;28;20353;-72
2022/11/29 11:21:22;;;;;;;164.48;42.08;;;;;;;;;;4991788;28;20026;-71
2022/11/29 11:23:51;;;;;;;149.70;38.40;;;;;;;;;;4997128;28;20045;-72
2022/11/29 11:26:17;;;;;;;128.80;35.65;;;;;;;;;;5006194;28;20520;-71
2022/11/29 11:28:48;;;;;;;143.43;39.78;;;;;;;;;;5004179;28;20026;-70
2022/11/29 11:31:13;;;;;;;141.30;35.50;;;;;;;;;;5003644;28;20030;-71
2022/11/29 11:33:45;;;;;;;140.02;37.17;;;;;;;;;;5005597;28;20040;-71
2022/11/29 11:36:19;;;;;;;127.78;34.20;;;;;;;;;;4997361;28;20010;-71
2022/11/29 11:38:52;;;;;;;127.47;35.95;;;;;;;;;;5001220;28;20026;-70
2022/11/29 11:41:19;;;;;;;121.05;33.55;;;;;;;;;;5003323;28;20025;-71
2022/11/29 11:43:53;;;;;;;130.88;37.90;;;;;;;;;;5007074;28;20050;-71
2022/11/29 11:46:18;;;;;;;99.18;31.90;;;;;;;;;;4996422;28;20014;-71
2022/11/29 11:48:45;;;;;;;105.80;32.92;;;;;;;;;;4991175;28;20014;-71
2022/11/29 11:51:19;;;;;;;105.65;31.83;;;;;;;;;;4991223;28;20026;-71
2022/11/29 11:53:48;;;;;;;101.10;32.22;;;;;;;;;;5006679;28;20033;-71
2022/11/29 11:56:14;;;;;;;103.63;30.92;;;;;;;;;;4998728;28;20034;-71
2022/11/29 11:58:43;;;;;;;91.10;26.65;;;;;;;;;;5007391;28;20033;-71
2022/11/29 12:01:11;;;;;;;97.75;30.73;;;;;;;;;;5006315;28;20018;-71
2022/11/29 12:03:39;;;;;;;108.28;30.02;;;;;;;;;;5002978;28;20024;-71
2022/11/29 12:06:07;;;;;;;111.65;32.83;;;;;;;;;;5010615;28;20478;-71
2022/11/29 12:08:32;;;;;;;112.57;32.83;;;;;;;;;;5007712;28;20548;-71
2022/11/29 12:11:00;;;;;;;107.30;32.85;;;;;;;;;;4997226;28;20025;-71
2022/11/29 12:13:28;;;;;;;111.57;33.40;;;;;;;;;;5002000;28;20417;-70
2022/11/29 12:15:55;;;;;;;114.28;33.53;;;;;;;;;;5003238;28;20061;-71
2022/11/29 12:18:37;;;;;;;134.27;34.35;;;;;;;;;;4990608;28;20018;-70
2022/11/29 12:21:07;;;;;;;120.20;34.42;;;;;;;;;;4996369;28;20029;-71
2022/11/29 12:23:43;;;;;;;114.78;32.92;;;;;;;;;;5007863;28;20050;-71
2022/11/29 12:26:13;;;;;;;124.15;33.33;;;;;;;;;;5002382;28;20506;-71
2022/11/29 12:28:39;;;;;;;110.45;28.90;;;;;;;;;;4999213;28;20037;-70
2022/11/29 12:31:16;;;;;;;123.78;32.85;;;;;;;;;;4994074;28;20164;-70
2022/11/29 12:34:00;;;;;;;114.55;32.00;;;;;;;;;;4994935;28;20057;-71
2022/11/29 12:36:40;;;;;;;117.85;33.83;;;;;;;;;;5007883;28;20014;-70
2022/11/29 12:39:08;;;;;;;121.90;30.40;;;;;;;;;;5002247;28;20140;-70
2022/11/29 12:41:45;;;;;;;125.70;34.80;;;;;;;;;;5010745;28;20022;-70
2022/11/29 12:44:35;;;;;;;122.70;35.45;;;;;;;;;;5008435;28;20050;-70
2022/11/29 12:47:10;;;;;;;129.77;34.58;;;;;;;;;;4994925;28;20026;-71
2022/11/29 12:49:47;;;;;;;124.03;35.38;;;;;;;;;;4994210;28;20084;-71
2022/11/29 12:52:21;;;;;;;128.20;33.83;;;;;;;;;;4994453;28;20018;-70
2022/11/29 12:55:05;;;;;;;126.70;35.45;;;;;;;;;;5007954;28;20083;-70
2022/11/29 12:57:40;;;;;;;119.00;34.70;;;;;;;;;;5009997;28;20076;-70
2022/11/29 13:00:13;;;;;;;119.18;34.78;;;;;;;;;;5012429;28;20442;-70
2022/11/29 13:02:47;;;;;;;131.27;35.58;;;;;;;;;;5008685;28;20018;-70
2022/11/29 13:05:23;;;;;;;108.03;31.33;;;;;;;;;;4994511;28;20137;-70
2022/11/29 13:07:58;;;;;;;110.05;32.85;;;;;;;;;;5000034;28;20571;-70
2022/11/29 13:10:23;;;;;;;109.63;32.17;;;;;;;;;;5006868;28;20032;-70
2022/11/29 13:12:53;;;;;;;108.47;34.33;;;;;;;;;;4995489;28;20030;-71
2022/11/29 13:15:19;;;;;;;97.38;30.88;;;;;;;;;;5009996;28;20284;-71
2022/11/29 13:17:44;;;;;;;116.25;32.88;;;;;;;;;;5001493;28;20101;-70
2022/11/29 13:20:20;;;;;;;118.80;34.42;;;;;;;;;;5001383;28;20466;-70
2022/11/29 13:22:45;;;;;;;99.30;29.52;;;;;;;;;;5008958;28;20034;-71
2022/11/29 13:25:19;;;;;;;97.75;31.35;;;;;;;;;;5010559;28;20029;-71
2022/11/29 13:27:57;;;;;;;93.07;31.75;;;;;;;;;;5007369;28;20041;-71
2022/11/29 13:30:22;;;;;;;108.43;33.17;;;;;;;;;;5007845;28;20545;-71
2022/11/29 13:33:00;;;;;;;112.18;31.95;;;;;;;;;;5010365;28;20108;-71
2022/11/29 13:35:31;;;;;;;102.10;32.50;;;;;;;;;;5003826;28;20457;-71
2022/11/29 13:38:00;;;;;;;100.85;31.85;;;;;;;;;;5012936;28;20471;-71
2022/11/29 13:40:44;;;;;;;104.47;32.90;;;;;;;;;;5009725;28;20045;-71
2022/11/29 13:43:18;;;;;;;107.40;32.00;;;;;;;;;;5008769;28;20041;-71
2022/11/29 13:45:47;;;;;;;101.20;33.83;;;;;;;;;;5006003;28;20109;-71
2022/11/29 13:48:21;;;;;;;121.20;35.42;;;;;;;;;;5010683;28;20009;-71
2022/11/29 13:50:47;;;;;;;102.47;32.03;;;;;;;;;;5004928;28;20019;-71
2022/11/29 13:53:20;;;;;;;111.53;33.40;;;;;;;;;;5002779;28;20022;-71
2022/11/29 13:55:47;;;;;;;117.32;36.75;;;;;;;;;;5011607;28;20037;-72
2022/11/29 13:58:31;;;;;;;121.82;35.05;;;;;;;;;;5012188;28;20093;-71
2022/11/29 14:01:01;;;;;;;107.22;32.72;;;;;;;;;;5011818;28;20510;-71
2022/11/29 14:03:31;;;;;;;108.10;31.05;;;;;;;;;;5007123;28;20018;-72
2022/11/29 14:06:07;;;;;;;114.88;33.50;;;;;;;;;;5002416;28;20041;-71
2022/11/29 14:08:35;;;;;;;115.75;32.85;;;;;;;;;;4998705;28;20458;-71
2022/11/29 14:11:16;;;;;;;121.25;33.25;;;;;;;;;;5005008;28;20021;-71
2022/11/29 14:13:59;;;;;;;117.50;34.33;;;;;;;;;;5010126;28;20030;-71
2022/11/29 14:16:24;;;;;;;110.22;33.20;;;;;;;;;;5006543;28;20535;-72
2022/11/29 14:19:04;;;;;;;108.18;30.67;;;;;;;;;;5012249;28;20054;-71
2022/11/29 14:22:01;;;;;;;111.70;30.67;;;;;;;;;;5010814;28;20624;-71
2022/11/29 14:24:36;;;;;;;105.60;30.50;;;;;;;;;;5004469;28;20038;-72
2022/11/29 14:27:13;;;;;;;124.55;31.45;;;;;;;;;;5007768;28;20029;-71
2022/11/29 14:29:48;;;;;;;131.85;33.55;;;;;;;;;;5005990;28;20060;-69
2022/11/29 14:32:23;;;;;;;112.45;32.28;;;;;;;;;;5007928;28;20540;-69
2022/11/29 14:34:51;;;;;;;111.90;36.20;;;;;;;;;;5006446;28;20509;-69
2022/11/29 14:37:29;;;;;;;122.45;34.60;;;;;;;;;;5007476;28;20509;-71
2022/11/29 14:39:56;;;;;;;117.97;34.72;;;;;;;;;;5007244;28;20018;-70